Huvudsida
METAR-TAF:

METAR-TAF

Flygplatser :

Maputo, Moçambique

latitud: 25-55S, longitud: 032-34E, höjd: 39 m

Aktuellt väderrapport

Denna rapport gjordes för 3 timmar och 8 minuter sedan, klockan 05:00 UTC
Vind 6 kt från väst/sydväst
Temperatur 19°C
Fuktighet 88%
Tryck 1022 hPa
Sikt 10 km eller mer
Spridda moln på en höjd av 2000 ft

METAR: FQMA 270500Z 24006KT 9999 SCT020 19/17 Q1022 NOSIG

Tid: 10:08 (08:08 UTC)

Väderprognos

Denna rapport gjordes för 4 timmar och 8 minuter sedan, klockan 04:00 UTC
Prognos gäller från 27 kl. 06 UTC till 28 kl. 12 UTC
Vind 8 kt från syd/sydväst
Sikt 10 km eller mer
Spridda moln på en höjd av 2000 ft
Blir
från 27 kl. 12 UTC till 27 kl. 14 UTC
Vind 12 kt från ost/sydost
Blir
från 27 kl. 20 UTC till 27 kl. 22 UTC
Vind 2 kt varierande vindriktning

TAF: FQMA 270400Z 2706/2812 21008KT 9999 SCT020 BECMG 2712/2714 12012KT BECMG 2720/2722 VRB02KT TN18/2803Z TX27/2713Z

Aktuella väderrapporter och prognoser från 4000 flygplatser (METAR- och TAF-rapporter).

De tillgängliga stationerna syns som gula och röda prickar på kartan.

För musen över prickarna för att se namnen på stationerna.

Klicka sedan för att få väderrapporter och prognoser.

För att ändra kartan: Klicka på de gröna knapparna med ett svart kors på för att zooma in; den gröna knappen med ett streck på för att zooma ut; eller på de gröna pilarna för angränsande kartor.


METAR-TAF: